sensor_id;sensor_type;location;lat;lon;timestamp;P1;durP1;ratioP1;P2;durP2;ratioP2
77828;SDS011;67019;51.034;3.728;2024-01-27T00:00:19;33.20;;;9.83;;
77828;SDS011;67019;51.034;3.728;2024-01-27T00:02:46;19.73;;;9.05;;
77828;SDS011;67019;51.034;3.728;2024-01-27T00:05:14;23.70;;;10.03;;
77828;SDS011;67019;51.034;3.728;2024-01-27T00:07:42;24.43;;;9.30;;
77828;SDS011;67019;51.034;3.728;2024-01-27T00:10:09;22.15;;;9.23;;
77828;SDS011;67019;51.034;3.728;2024-01-27T00:12:37;29.12;;;10.10;;
77828;SDS011;67019;51.034;3.728;2024-01-27T00:15:06;15.88;;;8.88;;
77828;SDS011;67019;51.034;3.728;2024-01-27T00:17:34;24.17;;;9.40;;
77828;SDS011;67019;51.034;3.728;2024-01-27T00:20:02;27.07;;;10.58;;
77828;SDS011;67019;51.034;3.728;2024-01-27T00:22:30;32.35;;;9.73;;
77828;SDS011;67019;51.034;3.728;2024-01-27T00:24:57;25.82;;;10.55;;
77828;SDS011;67019;51.034;3.728;2024-01-27T00:27:25;31.48;;;11.40;;
77828;SDS011;67019;51.034;3.728;2024-01-27T00:29:53;21.97;;;9.80;;
77828;SDS011;67019;51.034;3.728;2024-01-27T00:32:20;23.75;;;10.45;;
77828;SDS011;67019;51.034;3.728;2024-01-27T00:34:48;26.68;;;10.55;;
77828;SDS011;67019;51.034;3.728;2024-01-27T00:37:16;25.00;;;11.70;;
77828;SDS011;67019;51.034;3.728;2024-01-27T00:39:43;30.88;;;11.15;;
77828;SDS011;67019;51.034;3.728;2024-01-27T00:42:11;19.23;;;10.58;;
77828;SDS011;67019;51.034;3.728;2024-01-27T00:44:39;32.98;;;11.57;;
77828;SDS011;67019;51.034;3.728;2024-01-27T00:47:06;28.38;;;11.43;;
77828;SDS011;67019;51.034;3.728;2024-01-27T00:49:34;36.23;;;12.30;;
77828;SDS011;67019;51.034;3.728;2024-01-27T00:52:01;30.02;;;12.37;;
77828;SDS011;67019;51.034;3.728;2024-01-27T00:54:30;29.87;;;11.57;;
77828;SDS011;67019;51.034;3.728;2024-01-27T00:56:58;30.00;;;12.28;;
77828;SDS011;67019;51.034;3.728;2024-01-27T00:59:26;28.57;;;12.70;;
77828;SDS011;67019;51.034;3.728;2024-01-27T01:01:53;30.55;;;11.78;;
77828;SDS011;67019;51.034;3.728;2024-01-27T01:04:22;29.40;;;12.07;;
77828;SDS011;67019;51.034;3.728;2024-01-27T01:06:49;34.43;;;13.15;;
77828;SDS011;67019;51.034;3.728;2024-01-27T01:09:17;24.75;;;11.40;;
77828;SDS011;67019;51.034;3.728;2024-01-27T01:11:45;21.45;;;11.85;;
77828;SDS011;67019;51.034;3.728;2024-01-27T01:14:12;26.52;;;13.45;;
77828;SDS011;67019;51.034;3.728;2024-01-27T01:16:40;28.45;;;12.98;;
77828;SDS011;67019;51.034;3.728;2024-01-27T01:19:08;22.70;;;12.85;;
77828;SDS011;67019;51.034;3.728;2024-01-27T01:21:36;38.33;;;13.38;;
77828;SDS011;67019;51.034;3.728;2024-01-27T01:24:04;36.75;;;14.00;;
77828;SDS011;67019;51.034;3.728;2024-01-27T01:26:31;30.08;;;14.83;;
77828;SDS011;67019;51.034;3.728;2024-01-27T01:29:02;31.55;;;12.95;;
77828;SDS011;67019;51.034;3.728;2024-01-27T01:31:29;29.20;;;14.87;;
77828;SDS011;67019;51.034;3.728;2024-01-27T01:33:57;35.98;;;13.45;;
77828;SDS011;67019;51.034;3.728;2024-01-27T01:36:25;28.07;;;12.70;;
77828;SDS011;67019;51.034;3.728;2024-01-27T01:38:52;38.50;;;13.65;;
77828;SDS011;67019;51.034;3.728;2024-01-27T01:41:21;27.85;;;14.47;;
77828;SDS011;67019;51.034;3.728;2024-01-27T01:43:49;32.33;;;13.65;;
77828;SDS011;67019;51.034;3.728;2024-01-27T01:46:17;32.58;;;13.60;;
77828;SDS011;67019;51.034;3.728;2024-01-27T01:48:44;29.18;;;13.48;;
77828;SDS011;67019;51.034;3.728;2024-01-27T01:51:12;32.73;;;14.13;;
77828;SDS011;67019;51.034;3.728;2024-01-27T01:53:40;29.77;;;14.25;;
77828;SDS011;67019;51.034;3.728;2024-01-27T01:56:08;30.45;;;13.90;;
77828;SDS011;67019;51.034;3.728;2024-01-27T01:58:36;29.95;;;13.35;;
77828;SDS011;67019;51.034;3.728;2024-01-27T02:01:04;33.55;;;14.35;;
77828;SDS011;67019;51.034;3.728;2024-01-27T02:03:31;23.47;;;12.58;;
77828;SDS011;67019;51.034;3.728;2024-01-27T02:06:00;32.67;;;13.50;;
77828;SDS011;67019;51.034;3.728;2024-01-27T02:08:28;26.02;;;13.22;;
77828;SDS011;67019;51.034;3.728;2024-01-27T02:10:55;34.38;;;13.62;;
77828;SDS011;67019;51.034;3.728;2024-01-27T02:13:23;28.25;;;14.07;;
77828;SDS011;67019;51.034;3.728;2024-01-27T02:15:52;31.00;;;13.62;;
77828;SDS011;67019;51.034;3.728;2024-01-27T02:18:20;31.70;;;13.32;;
77828;SDS011;67019;51.034;3.728;2024-01-27T02:20:47;29.75;;;14.33;;
77828;SDS011;67019;51.034;3.728;2024-01-27T02:23:15;26.93;;;12.68;;
77828;SDS011;67019;51.034;3.728;2024-01-27T02:25:43;27.45;;;13.70;;
77828;SDS011;67019;51.034;3.728;2024-01-27T02:28:10;52.00;;;15.70;;
77828;SDS011;67019;51.034;3.728;2024-01-27T02:30:39;30.20;;;15.58;;
77828;SDS011;67019;51.034;3.728;2024-01-27T02:33:09;24.95;;;14.28;;
77828;SDS011;67019;51.034;3.728;2024-01-27T02:35:36;33.10;;;12.10;;
77828;SDS011;67019;51.034;3.728;2024-01-27T02:38:04;27.37;;;12.80;;
77828;SDS011;67019;51.034;3.728;2024-01-27T02:40:31;31.20;;;13.58;;
77828;SDS011;67019;51.034;3.728;2024-01-27T02:43:00;34.08;;;13.85;;
77828;SDS011;67019;51.034;3.728;2024-01-27T02:45:27;32.50;;;13.10;;
77828;SDS011;67019;51.034;3.728;2024-01-27T02:47:55;36.68;;;13.40;;
77828;SDS011;67019;51.034;3.728;2024-01-27T02:50:22;28.77;;;13.88;;
77828;SDS011;67019;51.034;3.728;2024-01-27T02:52:50;29.80;;;14.90;;
77828;SDS011;67019;51.034;3.728;2024-01-27T02:55:18;29.35;;;14.00;;
77828;SDS011;67019;51.034;3.728;2024-01-27T02:57:45;33.05;;;15.40;;
77828;SDS011;67019;51.034;3.728;2024-01-27T03:00:13;34.10;;;13.85;;
77828;SDS011;67019;51.034;3.728;2024-01-27T03:02:41;41.23;;;14.35;;
77828;SDS011;67019;51.034;3.728;2024-01-27T03:05:10;29.98;;;14.53;;
77828;SDS011;67019;51.034;3.728;2024-01-27T03:07:39;30.32;;;13.65;;
77828;SDS011;67019;51.034;3.728;2024-01-27T03:10:08;33.90;;;13.88;;
77828;SDS011;67019;51.034;3.728;2024-01-27T03:12:36;32.73;;;14.28;;
77828;SDS011;67019;51.034;3.728;2024-01-27T03:15:04;26.82;;;13.18;;
77828;SDS011;67019;51.034;3.728;2024-01-27T03:17:32;24.02;;;13.13;;
77828;SDS011;67019;51.034;3.728;2024-01-27T03:20:00;27.48;;;12.68;;
77828;SDS011;67019;51.034;3.728;2024-01-27T03:22:30;28.98;;;13.15;;
77828;SDS011;67019;51.034;3.728;2024-01-27T03:24:57;32.67;;;12.37;;
77828;SDS011;67019;51.034;3.728;2024-01-27T03:27:25;38.10;;;13.25;;
77828;SDS011;67019;51.034;3.728;2024-01-27T03:29:53;35.98;;;13.08;;
77828;SDS011;67019;51.034;3.728;2024-01-27T03:32:20;31.20;;;12.55;;
77828;SDS011;67019;51.034;3.728;2024-01-27T03:34:48;28.05;;;12.33;;
77828;SDS011;67019;51.034;3.728;2024-01-27T03:37:16;34.48;;;12.73;;
77828;SDS011;67019;51.034;3.728;2024-01-27T03:39:44;26.07;;;12.45;;
77828;SDS011;67019;51.034;3.728;2024-01-27T03:42:12;30.40;;;12.10;;
77828;SDS011;67019;51.034;3.728;2024-01-27T03:44:39;26.33;;;11.35;;
77828;SDS011;67019;51.034;3.728;2024-01-27T03:47:07;31.12;;;11.68;;
77828;SDS011;67019;51.034;3.728;2024-01-27T03:49:34;27.02;;;10.40;;
77828;SDS011;67019;51.034;3.728;2024-01-27T03:52:02;30.82;;;11.50;;
77828;SDS011;67019;51.034;3.728;2024-01-27T03:54:30;25.50;;;11.33;;
77828;SDS011;67019;51.034;3.728;2024-01-27T03:56:57;28.45;;;10.30;;
77828;SDS011;67019;51.034;3.728;2024-01-27T03:59:25;23.67;;;11.90;;
77828;SDS011;67019;51.034;3.728;2024-01-27T04:01:52;24.67;;;10.32;;
77828;SDS011;67019;51.034;3.728;2024-01-27T04:04:21;28.38;;;11.40;;
77828;SDS011;67019;51.034;3.728;2024-01-27T04:06:49;37.13;;;11.73;;
77828;SDS011;67019;51.034;3.728;2024-01-27T04:09:17;31.82;;;11.50;;
77828;SDS011;67019;51.034;3.728;2024-01-27T04:11:44;21.30;;;10.58;;
77828;SDS011;67019;51.034;3.728;2024-01-27T04:14:12;26.77;;;11.97;;
77828;SDS011;67019;51.034;3.728;2024-01-27T04:16:40;33.67;;;10.50;;
77828;SDS011;67019;51.034;3.728;2024-01-27T04:19:08;16.37;;;9.20;;
77828;SDS011;67019;51.034;3.728;2024-01-27T04:21:35;28.52;;;14.07;;
77828;SDS011;67019;51.034;3.728;2024-01-27T04:24:03;27.40;;;10.38;;
77828;SDS011;67019;51.034;3.728;2024-01-27T04:26:31;32.78;;;11.55;;
77828;SDS011;67019;51.034;3.728;2024-01-27T04:28:58;22.35;;;10.75;;
77828;SDS011;67019;51.034;3.728;2024-01-27T04:31:26;20.68;;;10.28;;
77828;SDS011;67019;51.034;3.728;2024-01-27T04:33:54;23.22;;;10.50;;
77828;SDS011;67019;51.034;3.728;2024-01-27T04:36:25;24.82;;;10.05;;
77828;SDS011;67019;51.034;3.728;2024-01-27T04:38:53;29.77;;;11.80;;
77828;SDS011;67019;51.034;3.728;2024-01-27T04:41:21;24.52;;;12.40;;
77828;SDS011;67019;51.034;3.728;2024-01-27T04:43:49;22.10;;;10.23;;
77828;SDS011;67019;51.034;3.728;2024-01-27T04:46:18;26.60;;;10.45;;
77828;SDS011;67019;51.034;3.728;2024-01-27T04:48:47;23.27;;;10.90;;
77828;SDS011;67019;51.034;3.728;2024-01-27T04:51:15;38.02;;;13.78;;
77828;SDS011;67019;51.034;3.728;2024-01-27T04:53:44;24.10;;;10.88;;
77828;SDS011;67019;51.034;3.728;2024-01-27T04:56:13;31.48;;;12.53;;
77828;SDS011;67019;51.034;3.728;2024-01-27T04:58:40;26.57;;;11.55;;
77828;SDS011;67019;51.034;3.728;2024-01-27T05:01:08;30.77;;;10.65;;
77828;SDS011;67019;51.034;3.728;2024-01-27T05:03:36;42.43;;;10.98;;
77828;SDS011;67019;51.034;3.728;2024-01-27T05:06:03;30.95;;;12.63;;
77828;SDS011;67019;51.034;3.728;2024-01-27T05:08:35;27.27;;;11.40;;
77828;SDS011;67019;51.034;3.728;2024-01-27T05:11:03;34.67;;;12.37;;
77828;SDS011;67019;51.034;3.728;2024-01-27T05:13:30;25.90;;;12.07;;
77828;SDS011;67019;51.034;3.728;2024-01-27T05:15:58;25.05;;;12.07;;
77828;SDS011;67019;51.034;3.728;2024-01-27T05:18:26;26.48;;;10.58;;
77828;SDS011;67019;51.034;3.728;2024-01-27T05:20:53;28.62;;;10.30;;
77828;SDS011;67019;51.034;3.728;2024-01-27T05:23:21;27.40;;;9.75;;
77828;SDS011;67019;51.034;3.728;2024-01-27T05:25:50;36.73;;;13.83;;
77828;SDS011;67019;51.034;3.728;2024-01-27T05:28:18;28.23;;;11.45;;
77828;SDS011;67019;51.034;3.728;2024-01-27T05:30:46;26.33;;;11.40;;
77828;SDS011;67019;51.034;3.728;2024-01-27T05:33:14;33.10;;;13.70;;
77828;SDS011;67019;51.034;3.728;2024-01-27T05:35:42;23.27;;;9.78;;
77828;SDS011;67019;51.034;3.728;2024-01-27T05:38:09;24.45;;;9.65;;
77828;SDS011;67019;51.034;3.728;2024-01-27T05:40:38;27.73;;;11.48;;
77828;SDS011;67019;51.034;3.728;2024-01-27T05:43:06;29.02;;;11.22;;
77828;SDS011;67019;51.034;3.728;2024-01-27T05:45:33;29.50;;;11.20;;
77828;SDS011;67019;51.034;3.728;2024-01-27T05:48:01;41.25;;;10.43;;
77828;SDS011;67019;51.034;3.728;2024-01-27T05:50:30;26.27;;;10.48;;
77828;SDS011;67019;51.034;3.728;2024-01-27T05:52:58;25.10;;;10.85;;
77828;SDS011;67019;51.034;3.728;2024-01-27T05:55:25;28.00;;;11.05;;
77828;SDS011;67019;51.034;3.728;2024-01-27T05:57:53;26.30;;;10.08;;
77828;SDS011;67019;51.034;3.728;2024-01-27T06:00:23;27.25;;;11.80;;
77828;SDS011;67019;51.034;3.728;2024-01-27T06:02:50;28.52;;;9.98;;
77828;SDS011;67019;51.034;3.728;2024-01-27T06:05:18;24.55;;;11.50;;
77828;SDS011;67019;51.034;3.728;2024-01-27T06:07:45;33.65;;;11.53;;
77828;SDS011;67019;51.034;3.728;2024-01-27T06:10:15;31.60;;;10.60;;
77828;SDS011;67019;51.034;3.728;2024-01-27T06:12:44;28.38;;;11.78;;
77828;SDS011;67019;51.034;3.728;2024-01-27T06:15:11;24.50;;;11.10;;
77828;SDS011;67019;51.034;3.728;2024-01-27T06:17:41;28.07;;;11.43;;
77828;SDS011;67019;51.034;3.728;2024-01-27T06:20:08;51.10;;;12.47;;
77828;SDS011;67019;51.034;3.728;2024-01-27T06:22:36;25.68;;;11.30;;
77828;SDS011;67019;51.034;3.728;2024-01-27T06:25:04;37.33;;;11.90;;
77828;SDS011;67019;51.034;3.728;2024-01-27T06:27:36;30.72;;;10.82;;
77828;SDS011;67019;51.034;3.728;2024-01-27T06:30:04;28.70;;;11.83;;
77828;SDS011;67019;51.034;3.728;2024-01-27T06:32:33;25.45;;;11.95;;
77828;SDS011;67019;51.034;3.728;2024-01-27T06:35:00;29.15;;;11.28;;
77828;SDS011;67019;51.034;3.728;2024-01-27T06:37:28;32.85;;;10.55;;
77828;SDS011;67019;51.034;3.728;2024-01-27T06:39:56;22.45;;;10.63;;
77828;SDS011;67019;51.034;3.728;2024-01-27T06:42:23;29.67;;;11.20;;
77828;SDS011;67019;51.034;3.728;2024-01-27T06:44:51;27.75;;;10.38;;
77828;SDS011;67019;51.034;3.728;2024-01-27T06:47:18;27.80;;;10.23;;
77828;SDS011;67019;51.034;3.728;2024-01-27T06:49:46;25.92;;;11.22;;
77828;SDS011;67019;51.034;3.728;2024-01-27T06:52:14;38.20;;;13.25;;
77828;SDS011;67019;51.034;3.728;2024-01-27T06:54:41;32.28;;;14.53;;
77828;SDS011;67019;51.034;3.728;2024-01-27T06:57:19;28.17;;;11.73;;
77828;SDS011;67019;51.034;3.728;2024-01-27T06:59:50;30.35;;;11.48;;
77828;SDS011;67019;51.034;3.728;2024-01-27T07:02:22;22.95;;;10.72;;
77828;SDS011;67019;51.034;3.728;2024-01-27T07:04:55;47.78;;;12.43;;
77828;SDS011;67019;51.034;3.728;2024-01-27T07:07:26;33.40;;;13.68;;
77828;SDS011;67019;51.034;3.728;2024-01-27T07:09:54;34.48;;;11.05;;
77828;SDS011;67019;51.034;3.728;2024-01-27T07:12:22;37.55;;;12.78;;
77828;SDS011;67019;51.034;3.728;2024-01-27T07:14:50;27.13;;;10.63;;
77828;SDS011;67019;51.034;3.728;2024-01-27T07:17:18;26.12;;;11.48;;
77828;SDS011;67019;51.034;3.728;2024-01-27T07:19:46;34.70;;;12.10;;
77828;SDS011;67019;51.034;3.728;2024-01-27T07:22:15;26.68;;;11.97;;
77828;SDS011;67019;51.034;3.728;2024-01-27T07:24:43;37.03;;;12.00;;
77828;SDS011;67019;51.034;3.728;2024-01-27T07:27:11;28.02;;;10.63;;
77828;SDS011;67019;51.034;3.728;2024-01-27T07:29:39;34.60;;;12.58;;
77828;SDS011;67019;51.034;3.728;2024-01-27T07:32:07;26.00;;;11.80;;
77828;SDS011;67019;51.034;3.728;2024-01-27T07:34:36;42.10;;;13.68;;
77828;SDS011;67019;51.034;3.728;2024-01-27T07:37:04;32.20;;;11.73;;
77828;SDS011;67019;51.034;3.728;2024-01-27T07:39:31;39.53;;;12.45;;
77828;SDS011;67019;51.034;3.728;2024-01-27T07:41:59;29.80;;;14.10;;
77828;SDS011;67019;51.034;3.728;2024-01-27T07:44:26;44.55;;;14.87;;
77828;SDS011;67019;51.034;3.728;2024-01-27T07:46:54;35.83;;;14.35;;
77828;SDS011;67019;51.034;3.728;2024-01-27T07:49:21;27.65;;;11.85;;
77828;SDS011;67019;51.034;3.728;2024-01-27T07:51:49;27.50;;;11.10;;
77828;SDS011;67019;51.034;3.728;2024-01-27T07:54:17;26.17;;;11.15;;
77828;SDS011;67019;51.034;3.728;2024-01-27T07:56:46;29.60;;;10.58;;
77828;SDS011;67019;51.034;3.728;2024-01-27T07:59:13;36.75;;;13.15;;
77828;SDS011;67019;51.034;3.728;2024-01-27T08:01:41;27.40;;;10.48;;
77828;SDS011;67019;51.034;3.728;2024-01-27T08:04:11;26.62;;;11.48;;
77828;SDS011;67019;51.034;3.728;2024-01-27T08:06:49;28.05;;;10.50;;
77828;SDS011;67019;51.034;3.728;2024-01-27T08:09:17;29.25;;;11.97;;
77828;SDS011;67019;51.034;3.728;2024-01-27T08:11:46;39.73;;;12.47;;
77828;SDS011;67019;51.034;3.728;2024-01-27T08:14:16;39.00;;;11.73;;
77828;SDS011;67019;51.034;3.728;2024-01-27T08:16:43;35.48;;;12.75;;
77828;SDS011;67019;51.034;3.728;2024-01-27T08:19:11;24.80;;;11.40;;
77828;SDS011;67019;51.034;3.728;2024-01-27T08:21:38;25.27;;;11.43;;
77828;SDS011;67019;51.034;3.728;2024-01-27T08:24:06;27.30;;;10.93;;
77828;SDS011;67019;51.034;3.728;2024-01-27T08:26:33;34.75;;;10.63;;
77828;SDS011;67019;51.034;3.728;2024-01-27T08:29:03;26.80;;;11.63;;
77828;SDS011;67019;51.034;3.728;2024-01-27T08:31:30;31.15;;;11.85;;
77828;SDS011;67019;51.034;3.728;2024-01-27T08:34:05;29.95;;;10.85;;
77828;SDS011;67019;51.034;3.728;2024-01-27T08:36:32;25.07;;;10.70;;
77828;SDS011;67019;51.034;3.728;2024-01-27T08:39:01;35.40;;;10.10;;
77828;SDS011;67019;51.034;3.728;2024-01-27T08:41:29;28.45;;;10.50;;
77828;SDS011;67019;51.034;3.728;2024-01-27T08:43:56;30.05;;;10.30;;
77828;SDS011;67019;51.034;3.728;2024-01-27T08:46:24;27.67;;;11.97;;
77828;SDS011;67019;51.034;3.728;2024-01-27T08:48:51;20.97;;;9.30;;
77828;SDS011;67019;51.034;3.728;2024-01-27T08:51:19;20.52;;;8.95;;
77828;SDS011;67019;51.034;3.728;2024-01-27T08:53:47;36.38;;;9.90;;
77828;SDS011;67019;51.034;3.728;2024-01-27T08:56:17;23.73;;;9.88;;
77828;SDS011;67019;51.034;3.728;2024-01-27T08:58:45;30.90;;;8.80;;
77828;SDS011;67019;51.034;3.728;2024-01-27T09:01:16;23.12;;;9.25;;
77828;SDS011;67019;51.034;3.728;2024-01-27T09:03:44;26.15;;;9.50;;
77828;SDS011;67019;51.034;3.728;2024-01-27T09:06:12;39.70;;;10.63;;
77828;SDS011;67019;51.034;3.728;2024-01-27T09:08:40;38.80;;;10.23;;
77828;SDS011;67019;51.034;3.728;2024-01-27T09:11:07;37.13;;;10.45;;
77828;SDS011;67019;51.034;3.728;2024-01-27T09:13:35;29.85;;;9.70;;
77828;SDS011;67019;51.034;3.728;2024-01-27T09:16:03;28.27;;;9.25;;
77828;SDS011;67019;51.034;3.728;2024-01-27T09:18:30;23.47;;;10.55;;
77828;SDS011;67019;51.034;3.728;2024-01-27T09:21:01;27.60;;;8.55;;
77828;SDS011;67019;51.034;3.728;2024-01-27T09:23:27;26.85;;;11.15;;
77828;SDS011;67019;51.034;3.728;2024-01-27T09:25:56;34.10;;;10.43;;
77828;SDS011;67019;51.034;3.728;2024-01-27T09:28:24;36.45;;;9.70;;
77828;SDS011;67019;51.034;3.728;2024-01-27T09:30:52;41.88;;;9.93;;
77828;SDS011;67019;51.034;3.728;2024-01-27T09:33:20;21.68;;;8.40;;
77828;SDS011;67019;51.034;3.728;2024-01-27T09:35:49;22.42;;;7.95;;
77828;SDS011;67019;51.034;3.728;2024-01-27T09:38:16;17.07;;;8.20;;
77828;SDS011;67019;51.034;3.728;2024-01-27T09:40:44;26.20;;;8.10;;
77828;SDS011;67019;51.034;3.728;2024-01-27T09:43:15;32.80;;;8.05;;
77828;SDS011;67019;51.034;3.728;2024-01-27T09:45:45;23.75;;;7.78;;
77828;SDS011;67019;51.034;3.728;2024-01-27T09:48:12;30.43;;;8.15;;
77828;SDS011;67019;51.034;3.728;2024-01-27T09:50:41;18.17;;;7.78;;
77828;SDS011;67019;51.034;3.728;2024-01-27T09:53:10;21.25;;;8.13;;
77828;SDS011;67019;51.034;3.728;2024-01-27T09:55:39;19.50;;;7.45;;
77828;SDS011;67019;51.034;3.728;2024-01-27T09:58:07;26.90;;;9.48;;
77828;SDS011;67019;51.034;3.728;2024-01-27T10:00:35;26.60;;;8.38;;
77828;SDS011;67019;51.034;3.728;2024-01-27T10:03:04;24.45;;;7.80;;
77828;SDS011;67019;51.034;3.728;2024-01-27T10:05:33;20.35;;;8.38;;
77828;SDS011;67019;51.034;3.728;2024-01-27T10:08:05;27.98;;;8.80;;
77828;SDS011;67019;51.034;3.728;2024-01-27T10:10:34;28.60;;;8.00;;
77828;SDS011;67019;51.034;3.728;2024-01-27T10:13:03;29.50;;;8.03;;
77828;SDS011;67019;51.034;3.728;2024-01-27T10:15:32;26.30;;;9.03;;
77828;SDS011;67019;51.034;3.728;2024-01-27T10:18:06;16.93;;;7.28;;
77828;SDS011;67019;51.034;3.728;2024-01-27T10:20:34;24.90;;;7.12;;
77828;SDS011;67019;51.034;3.728;2024-01-27T10:23:10;23.07;;;7.47;;
77828;SDS011;67019;51.034;3.728;2024-01-27T10:25:39;22.27;;;5.80;;
77828;SDS011;67019;51.034;3.728;2024-01-27T10:28:07;20.72;;;6.15;;
77828;SDS011;67019;51.034;3.728;2024-01-27T10:30:35;29.25;;;7.40;;
77828;SDS011;67019;51.034;3.728;2024-01-27T10:33:03;23.77;;;7.08;;
77828;SDS011;67019;51.034;3.728;2024-01-27T10:35:31;28.80;;;7.78;;
77828;SDS011;67019;51.034;3.728;2024-01-27T10:37:59;22.42;;;5.67;;
77828;SDS011;67019;51.034;3.728;2024-01-27T10:40:26;16.75;;;6.33;;
77828;SDS011;67019;51.034;3.728;2024-01-27T10:43:07;25.68;;;5.75;;
77828;SDS011;67019;51.034;3.728;2024-01-27T10:45:41;20.45;;;5.95;;
77828;SDS011;67019;51.034;3.728;2024-01-27T10:48:07;32.65;;;8.10;;
77828;SDS011;67019;51.034;3.728;2024-01-27T10:50:38;20.57;;;5.97;;
77828;SDS011;67019;51.034;3.728;2024-01-27T10:53:12;24.60;;;5.00;;
77828;SDS011;67019;51.034;3.728;2024-01-27T10:55:46;17.12;;;4.25;;
77828;SDS011;67019;51.034;3.728;2024-01-27T10:58:15;21.33;;;6.27;;
77828;SDS011;67019;51.034;3.728;2024-01-27T11:00:44;23.67;;;7.45;;
77828;SDS011;67019;51.034;3.728;2024-01-27T11:03:14;20.70;;;5.42;;
77828;SDS011;67019;51.034;3.728;2024-01-27T11:05:46;26.10;;;5.70;;
77828;SDS011;67019;51.034;3.728;2024-01-27T11:08:14;20.62;;;5.78;;
77828;SDS011;67019;51.034;3.728;2024-01-27T11:10:42;25.23;;;6.22;;
77828;SDS011;67019;51.034;3.728;2024-01-27T11:13:12;19.05;;;6.72;;
77828;SDS011;67019;51.034;3.728;2024-01-27T11:15:50;21.75;;;5.67;;
77828;SDS011;67019;51.034;3.728;2024-01-27T11:20:47;22.05;;;5.55;;
77828;SDS011;67019;51.034;3.728;2024-01-27T11:23:15;14.83;;;5.47;;
77828;SDS011;67019;51.034;3.728;2024-01-27T11:25:43;25.35;;;7.97;;
77828;SDS011;67019;51.034;3.728;2024-01-27T11:28:11;24.52;;;5.83;;
77828;SDS011;67019;51.034;3.728;2024-01-27T11:30:47;20.25;;;6.20;;
77828;SDS011;67019;51.034;3.728;2024-01-27T11:33:15;23.32;;;6.35;;
77828;SDS011;67019;51.034;3.728;2024-01-27T11:35:44;25.85;;;7.10;;
77828;SDS011;67019;51.034;3.728;2024-01-27T11:38:12;18.65;;;4.10;;
77828;SDS011;67019;51.034;3.728;2024-01-27T11:40:46;18.85;;;5.45;;
77828;SDS011;67019;51.034;3.728;2024-01-27T11:43:15;19.77;;;7.30;;
77828;SDS011;67019;51.034;3.728;2024-01-27T11:45:54;28.65;;;7.45;;
77828;SDS011;67019;51.034;3.728;2024-01-27T11:48:23;21.33;;;5.70;;
77828;SDS011;67019;51.034;3.728;2024-01-27T11:51:03;21.55;;;5.03;;
77828;SDS011;67019;51.034;3.728;2024-01-27T11:53:35;21.95;;;6.40;;
77828;SDS011;67019;51.034;3.728;2024-01-27T11:56:03;21.62;;;5.35;;
77828;SDS011;67019;51.034;3.728;2024-01-27T11:58:31;23.62;;;5.25;;
77828;SDS011;67019;51.034;3.728;2024-01-27T12:00:59;19.92;;;4.85;;
77828;SDS011;67019;51.034;3.728;2024-01-27T12:03:27;21.12;;;6.85;;
77828;SDS011;67019;51.034;3.728;2024-01-27T12:05:55;17.90;;;4.97;;
77828;SDS011;67019;51.034;3.728;2024-01-27T12:08:22;19.65;;;6.58;;
77828;SDS011;67019;51.034;3.728;2024-01-27T12:10:50;24.12;;;4.53;;
77828;SDS011;67019;51.034;3.728;2024-01-27T12:13:18;22.93;;;4.47;;
77828;SDS011;67019;51.034;3.728;2024-01-27T12:15:46;22.82;;;4.15;;
77828;SDS011;67019;51.034;3.728;2024-01-27T12:18:14;15.18;;;4.55;;
77828;SDS011;67019;51.034;3.728;2024-01-27T12:20:44;17.98;;;3.42;;
77828;SDS011;67019;51.034;3.728;2024-01-27T12:23:13;14.33;;;4.35;;
77828;SDS011;67019;51.034;3.728;2024-01-27T12:25:42;17.25;;;4.20;;
77828;SDS011;67019;51.034;3.728;2024-01-27T12:28:13;29.12;;;6.75;;
77828;SDS011;67019;51.034;3.728;2024-01-27T12:30:42;22.10;;;5.00;;
77828;SDS011;67019;51.034;3.728;2024-01-27T12:33:11;20.85;;;5.22;;
77828;SDS011;67019;51.034;3.728;2024-01-27T12:35:40;21.87;;;5.60;;
77828;SDS011;67019;51.034;3.728;2024-01-27T12:38:07;26.80;;;5.17;;
77828;SDS011;67019;51.034;3.728;2024-01-27T12:40:37;26.35;;;5.30;;
77828;SDS011;67019;51.034;3.728;2024-01-27T12:43:05;20.30;;;5.35;;
77828;SDS011;67019;51.034;3.728;2024-01-27T12:45:32;18.55;;;4.75;;
77828;SDS011;67019;51.034;3.728;2024-01-27T12:48:00;20.32;;;5.00;;
77828;SDS011;67019;51.034;3.728;2024-01-27T12:50:30;14.38;;;3.33;;
77828;SDS011;67019;51.034;3.728;2024-01-27T12:52:59;18.80;;;6.05;;
77828;SDS011;67019;51.034;3.728;2024-01-27T12:55:26;14.07;;;3.95;;
77828;SDS011;67019;51.034;3.728;2024-01-27T12:57:54;10.90;;;4.10;;
77828;SDS011;67019;51.034;3.728;2024-01-27T13:00:23;19.80;;;4.20;;
77828;SDS011;67019;51.034;3.728;2024-01-27T13:02:51;15.05;;;3.45;;
77828;SDS011;67019;51.034;3.728;2024-01-27T13:05:19;18.25;;;4.45;;
77828;SDS011;67019;51.034;3.728;2024-01-27T13:07:48;23.15;;;4.85;;
77828;SDS011;67019;51.034;3.728;2024-01-27T13:10:15;19.52;;;4.42;;
77828;SDS011;67019;51.034;3.728;2024-01-27T13:12:43;13.72;;;4.80;;
77828;SDS011;67019;51.034;3.728;2024-01-27T13:15:11;16.07;;;3.90;;
77828;SDS011;67019;51.034;3.728;2024-01-27T13:17:38;16.67;;;3.30;;
77828;SDS011;67019;51.034;3.728;2024-01-27T13:20:07;12.07;;;3.17;;
77828;SDS011;67019;51.034;3.728;2024-01-27T13:22:35;13.08;;;3.35;;
77828;SDS011;67019;51.034;3.728;2024-01-27T13:25:03;13.98;;;3.52;;
77828;SDS011;67019;51.034;3.728;2024-01-27T13:27:31;14.25;;;4.35;;
77828;SDS011;67019;51.034;3.728;2024-01-27T13:30:00;16.32;;;3.35;;
77828;SDS011;67019;51.034;3.728;2024-01-27T13:32:28;15.72;;;4.08;;
77828;SDS011;67019;51.034;3.728;2024-01-27T13:34:56;17.07;;;3.20;;
77828;SDS011;67019;51.034;3.728;2024-01-27T13:37:24;10.72;;;3.20;;
77828;SDS011;67019;51.034;3.728;2024-01-27T13:39:53;9.65;;;2.62;;
77828;SDS011;67019;51.034;3.728;2024-01-27T13:42:22;6.55;;;2.62;;
77828;SDS011;67019;51.034;3.728;2024-01-27T13:44:50;10.80;;;2.95;;
77828;SDS011;67019;51.034;3.728;2024-01-27T13:47:18;9.88;;;2.80;;
77828;SDS011;67019;51.034;3.728;2024-01-27T13:49:45;10.58;;;2.87;;
77828;SDS011;67019;51.034;3.728;2024-01-27T13:52:13;12.63;;;2.72;;
77828;SDS011;67019;51.034;3.728;2024-01-27T13:54:41;20.05;;;4.47;;
77828;SDS011;67019;51.034;3.728;2024-01-27T13:57:09;17.42;;;2.87;;
77828;SDS011;67019;51.034;3.728;2024-01-27T13:59:36;12.05;;;2.80;;
77828;SDS011;67019;51.034;3.728;2024-01-27T14:02:04;16.60;;;3.37;;
77828;SDS011;67019;51.034;3.728;2024-01-27T14:04:32;19.15;;;3.98;;
77828;SDS011;67019;51.034;3.728;2024-01-27T14:06:59;16.37;;;3.20;;
77828;SDS011;67019;51.034;3.728;2024-01-27T14:09:32;13.10;;;3.20;;
77828;SDS011;67019;51.034;3.728;2024-01-27T14:12:00;18.70;;;3.95;;
77828;SDS011;67019;51.034;3.728;2024-01-27T14:14:28;15.98;;;3.60;;
77828;SDS011;67019;51.034;3.728;2024-01-27T14:16:55;18.92;;;3.60;;
77828;SDS011;67019;51.034;3.728;2024-01-27T14:19:24;10.00;;;2.90;;
77828;SDS011;67019;51.034;3.728;2024-01-27T14:21:52;13.72;;;4.00;;
77828;SDS011;67019;51.034;3.728;2024-01-27T14:24:19;9.40;;;3.75;;
77828;SDS011;67019;51.034;3.728;2024-01-27T14:26:47;14.05;;;4.25;;
77828;SDS011;67019;51.034;3.728;2024-01-27T14:29:15;22.02;;;3.90;;
77828;SDS011;67019;51.034;3.728;2024-01-27T14:31:43;20.65;;;4.08;;
77828;SDS011;67019;51.034;3.728;2024-01-27T14:34:10;14.68;;;5.28;;